Flight Track Log - Related Links

Times and Time Zones

All times are in EDT time to prevent confusion due to time zone crossing. See the GGN7280 flight status page for this flight to view local times or setup timezone preferences in your user account.

Time Position Orientation Groundspeed Altitude Reporting Facility
EDT Latitude Longitude Course Direction KTS MPH feet Rate Location/Type
Wed 09:33:50 AM 43.6333 -79.6167 180° South 150 173 2,500  Level Toronto Center
Wed 09:34:50 AM 43.5833 -79.6167 180° South 200 230 3,200 750 Climbing Toronto Center
Wed 09:35:50 AM 43.5500 -79.5667 133° Southeast 210 242 4,000 522 Climbing Toronto Center
Wed 09:37:31 AM 43.5444 -79.4378 93° East 256 295 4,600 373 Climbing Cleveland Center
Wed 09:38:31 AM 43.5311 -79.3492 102° East 242 278 5,000 820 Climbing Cleveland Center
Wed 09:39:50 AM 43.5000 -79.2000 106° East 240 276 6,500 1,597 Climbing Toronto Center
Wed 09:40:50 AM 43.5000 -79.1333 90° East 210 242 8,700 2,200 Climbing Toronto Center
Wed 09:41:50 AM 43.4833 -79.0667 109° East 200 230 10,900 1,975 Climbing Toronto Center
Wed 09:43:31 AM 43.4822 -78.9353 91° East 207 238 14,000 1,789 Climbing Cleveland Center
Wed 09:44:31 AM 43.4706 -78.8556 101° East 207 238 15,700 1,550 Climbing Cleveland Center
Wed 09:45:31 AM 43.4589 -78.7700 101° East 212 244 17,100 1,300 Climbing Cleveland Center
Wed 09:46:31 AM 43.4469 -78.6819 101° East 223 257 18,300 1,250 Climbing Cleveland Center
Wed 09:47:31 AM 43.4372 -78.5878 98° East 236 272 19,600 1,050 Climbing Cleveland Center
Wed 09:48:31 AM 43.4272 -78.4967 99° East 236 272 20,400 750 Climbing Cleveland Center
Wed 09:49:31 AM 43.4150 -78.4000 100° East 241 277 21,100 750 Climbing Cleveland Center
Wed 09:50:31 AM 43.4025 -78.3003 100° East 253 291 21,900 700 Climbing Cleveland Center
Wed 09:51:31 AM 43.3922 -78.2006 98° East 259 298 22,500 600 Climbing Cleveland Center
Wed 09:52:31 AM 43.3778 -78.0983 101° East 259 298 23,100 600 Climbing Cleveland Center
Wed 09:53:31 AM 43.3650 -78.0017 100° East 259 298 23,700 550 Climbing Cleveland Center
Wed 09:54:31 AM 43.3525 -77.9022 100° East 259 298 24,200 500 Climbing Cleveland Center
Wed 09:55:31 AM 43.3397 -77.8003 100° East 259 298 24,700 350 Climbing Cleveland Center
Wed 09:56:31 AM 43.3267 -77.6981 100° East 259 298 24,900 150 Climbing Cleveland Center
Wed 09:57:31 AM 43.3117 -77.5931 101° East 264 304 25,000 100 Climbing Cleveland Center
Wed 09:58:31 AM 43.2983 -77.4825 99° East 275 316 25,100  Climbing Cleveland Center
Wed 09:59:31 AM 43.2850 -77.3775 100° East 280 322 25,000 -50 Descending Cleveland Center
Wed 10:00:31 AM 43.2672 -77.2672 102° East 285 328 25,000  Level Cleveland Center
Wed 10:01:31 AM 43.2517 -77.1597 101° East 285 328 25,000  Level Cleveland Center
Wed 10:03:50 AM 43.2167 -76.8833 100° East 280 322 25,000  Level Toronto Center
Wed 10:04:50 AM 43.2000 -76.7667 101° East 280 322 25,000 50 Level Toronto Center
Wed 10:05:50 AM 43.1667 -76.6667 115° Southeast 290 334 25,100 50 Climbing Toronto Center
Wed 10:06:50 AM 43.1667 -76.5667 90° East 280 322 25,100  Level Toronto Center
Wed 10:07:50 AM 43.1500 -76.4500 101° East 290 334 25,100  Level Toronto Center
Wed 10:08:50 AM 43.1500 -76.3500 90° East 280 322 25,100 -50 Level Toronto Center
Wed 10:09:50 AM 43.1500 -76.2333 90° East 290 334 25,000  Descending Toronto Center
Wed 10:10:50 AM 43.1500 -76.1333 90° East 290 334 25,100  Climbing Toronto Center
Wed 10:11:49 AM 43.1333 -76.0167 101° East 290 334 25,000 -650 Descending Toronto Center
Wed 10:12:50 AM 43.1167 -75.9167 103° East 310 357 23,800 -1,388 Descending Toronto Center
Wed 10:13:50 AM 43.1167 -75.8000 90° East 310 357 22,200 -1,714 Descending Toronto Center
Wed 10:14:56 AM 43.1231 -75.6917 85° East 303 349 20,200 -1,714 Descending Boston Center
Wed 10:15:56 AM 43.1158 -75.5775 95° East 303 349 18,600 -1,318 Descending Boston Center
Wed 10:17:08 AM 43.1086 -75.4578 95° East 308 354 17,300 -1,227 Descending Boston Center
Wed 10:18:08 AM 43.0953 -75.3261 98° East 303 349 15,900 -1,250 Descending Boston Center
Wed 10:19:08 AM 43.0897 -75.2150 94° East 297 342 14,800 -1,050 Descending Boston Center
Wed 10:20:08 AM 43.0800 -75.1036 97° East 292 336 13,800 -900 Descending Boston Center
Wed 10:21:08 AM 43.0742 -74.9983 94° East 292 336 13,000 -682 Descending Boston Center
Wed 10:22:20 AM 43.0642 -74.8756 96° East 268 308 12,300 -595 Descending Boston Center
Wed 10:23:19 AM 43.0581 -74.7789 95° East 266 306 11,700 -650 Descending Boston Center
Wed 10:24:20 AM 43.0475 -74.6733 98° East 270 311 11,000 -298 Descending Boston Center
Wed 10:25:20 AM 43.0450 -74.5936 92° East 259 298 11,100 -50 Climbing Boston Center
Wed 10:26:20 AM 43.0344 -74.4767 97° East 256 295 10,900 -600 Descending Boston Center
Wed 10:27:20 AM 43.0239 -74.3769 98° East 261 300 9,900 -1,200 Descending Boston Center
Wed 10:28:20 AM 43.0150 -74.2744 97° East 266 306 8,500 -1,200 Descending Boston Center
Wed 10:29:20 AM 42.9853 -74.1856 115° Southeast 261 300 7,500 -1,450 Descending Boston Center
Wed 10:30:20 AM 42.9383 -74.1133 132° Southeast 251 289 5,600 -1,850 Descending Boston Center
Wed 10:31:20 AM 42.8975 -74.0500 131° Southeast 235 270 3,800 -1,364 Descending Boston Center
Wed 10:32:32 AM 42.8631 -73.9839 125° Southeast 214 246 2,600 3,273 Descending Boston Center
Wed 10:33:32 AM 42.8203 -73.9147 130° Southeast 214 246 11,000 -143 Climbing Boston Center
Wed 10:34:38 AM 42.8214 -73.8272 89° East 185 213 2,300  Descending Boston Center
Wed 10:35:32 AM 42.7489 -73.7858 157° South 214 246 11,000 4,579 Climbing Boston Center
Wed 10:36:32 AM 42.7203 -73.7344 127° Southeast 214 246 11,000  Level Boston Center
Wed 10:37:32 AM 42.7203 -73.7344 236° Southwest 214 246 11,000  Level Boston Center

Login

Don't have an account? Register now (free) for customized features, flight alerts, and more!